Time;durP1;ratioP1;P1;durP2;ratioP2;P2;SDS_P1;SDS_P2;PMS_P1;PMS_P2;Temp;Humidity;BMP_temperature;BMP_pressure;BME280_temperature;BME280_humidity;BME280_pressure;Samples;Min_cycle;Max_cycle;Signal;HPM_P1;HPM_P2
2021/10/28 00:14:10;;;;;;;21.75;11.35;;;;;;;10.24;99.89;102025.56;5068461;28;20409;-60
2021/10/28 00:16:36;;;;;;;20.92;12.38;;;;;;;10.22;100.00;102016.78;5058968;28;20033;-64
2021/10/28 00:19:04;;;;;;;22.42;12.95;;;;;;;10.22;100.00;102014.13;5076381;28;20433;-63
2021/10/28 00:21:33;;;;;;;22.95;13.13;;;;;;;10.23;100.00;102015.88;5076119;28;20021;-64
2021/10/28 00:24:04;;;;;;;18.35;11.70;;;;;;;10.22;100.00;102009.72;5076143;28;20104;-64
2021/10/28 00:26:34;;;;;;;19.92;11.95;;;;;;;10.23;100.00;102013.22;5059493;28;20151;-63
2021/10/28 00:29:01;;;;;;;18.52;11.40;;;;;;;10.22;100.00;102004.41;5056033;28;20468;-64
2021/10/28 00:31:30;;;;;;;20.33;12.23;;;;;;;10.24;100.00;102001.72;5056151;28;20108;-64
2021/10/28 00:33:56;;;;;;;18.58;11.98;;;;;;;10.27;100.00;101999.03;5055736;28;20041;-63
2021/10/28 00:36:23;;;;;;;23.17;12.35;;;;;;;10.24;100.00;101993.78;5057401;28;20051;-63
2021/10/28 00:38:49;;;;;;;21.92;12.55;;;;;;;10.21;100.00;102009.75;5055477;28;20370;-64
2021/10/28 00:41:16;;;;;;;18.83;11.90;;;;;;;10.19;100.00;102003.63;5055501;28;20025;-64
2021/10/28 00:43:49;;;;;;;19.77;12.43;;;;;;;10.19;100.00;102001.84;5055881;28;20025;-64
2021/10/28 00:46:17;;;;;;;23.38;12.13;;;;;;;10.26;100.00;101994.63;5056184;28;20046;-64
2021/10/28 00:48:46;;;;;;;25.40;12.75;;;;;;;10.26;100.00;101998.13;5055548;28;20090;-64
2021/10/28 00:51:13;;;;;;;23.83;13.18;;;;;;;10.24;100.00;101992.00;5055433;28;20032;-63
2021/10/28 00:53:39;;;;;;;23.15;12.63;;;;;;;10.25;100.00;101990.25;5055260;28;20029;-64
2021/10/28 00:56:05;;;;;;;22.67;12.18;;;;;;;10.26;100.00;101992.84;5055205;28;20032;-64
2021/10/28 00:58:32;;;;;;;24.50;12.57;;;;;;;10.27;100.00;101993.72;5057002;28;20033;-61
2021/10/28 01:01:04;;;;;;;19.38;11.82;;;;;;;10.29;100.00;101997.19;5055122;28;20358;-60
2021/10/28 01:03:30;;;;;;;22.73;12.55;;;;;;;10.29;100.00;101997.19;5055500;28;20029;-64
2021/10/28 01:05:56;;;;;;;23.17;12.50;;;;;;;10.32;100.00;101998.00;5055115;28;20091;-64
2021/10/28 01:08:24;;;;;;;23.20;12.63;;;;;;;10.31;100.00;101996.25;5056666;28;20036;-64
2021/10/28 01:10:50;;;;;;;23.33;12.25;;;;;;;10.32;100.00;101991.84;5054921;28;20021;-64
2021/10/28 01:13:18;;;;;;;21.90;11.38;;;;;;;10.32;100.00;101991.84;5055322;28;20488;-64
2021/10/28 01:15:43;;;;;;;19.92;11.48;;;;;;;10.37;100.00;101994.38;5054812;28;20111;-64
2021/10/28 01:18:10;;;;;;;21.30;12.05;;;;;;;10.35;99.95;101994.41;5056041;28;20029;-63
2021/10/28 01:20:40;;;;;;;20.50;11.75;;;;;;;10.29;99.39;101992.78;5055661;28;20035;-62
2021/10/28 01:23:07;;;;;;;21.75;11.48;;;;;;;10.25;99.31;101983.16;5054848;28;20427;-64
2021/10/28 01:25:32;;;;;;;20.20;11.48;;;;;;;10.19;99.33;101985.09;5054525;28;20048;-61
2021/10/28 01:27:58;;;;;;;28.15;13.43;;;;;;;10.11;99.60;101990.56;5054165;28;20499;-63
2021/10/28 01:30:24;;;;;;;27.48;13.30;;;;;;;10.05;99.85;101981.03;5055847;28;20041;-64
2021/10/28 01:32:50;;;;;;;23.80;13.05;;;;;;;10.01;99.91;101979.34;5056100;28;20029;-64
2021/10/28 01:35:15;;;;;;;26.80;13.68;;;;;;;9.97;100.00;101975.03;5054490;28;20166;-63
2021/10/28 01:37:46;;;;;;;28.20;14.20;;;;;;;9.88;99.99;101975.25;5054470;28;20135;-63
2021/10/28 01:40:12;;;;;;;28.08;14.48;;;;;;;9.80;100.00;101978.09;5055803;28;20036;-64
2021/10/28 01:42:44;;;;;;;27.88;14.82;;;;;;;9.70;100.00;101977.41;5054596;28;20029;-64
2021/10/28 01:45:09;;;;;;;30.38;15.90;;;;;;;9.63;100.00;101974.06;5054521;28;20029;-64
2021/10/28 01:47:35;;;;;;;32.83;15.88;;;;;;;9.55;100.00;101968.03;5054531;28;20491;-64
2021/10/28 01:50:00;;;;;;;29.77;15.70;;;;;;;9.50;100.00;101977.84;5055110;28;20052;-64
2021/10/28 01:52:25;;;;;;;32.33;16.65;;;;;;;9.46;100.00;101970.91;5055115;28;20499;-64
2021/10/28 01:54:51;;;;;;;32.33;16.23;;;;;;;9.43;100.00;101963.91;5054510;28;20029;-63
2021/10/28 01:57:21;;;;;;;33.72;16.85;;;;;;;9.38;100.00;101963.13;5054298;28;20017;-64
2021/10/28 01:59:48;;;;;;;33.55;17.15;;;;;;;9.35;100.00;101964.06;5054321;28;20029;-59
2021/10/28 02:02:14;;;;;;;33.60;17.00;;;;;;;9.33;100.00;101960.63;5055812;28;20032;-61
2021/10/28 02:04:40;;;;;;;39.28;18.88;;;;;;;9.30;100.00;101958.03;5054358;28;20025;-65
2021/10/28 02:07:06;;;;;;;38.75;18.80;;;;;;;9.32;100.00;101958.88;5054413;28;20024;-60
2021/10/28 02:09:32;;;;;;;35.70;17.30;;;;;;;9.35;100.00;101955.28;5054074;28;20079;-64
2021/10/28 02:11:57;;;;;;;38.17;17.75;;;;;;;9.33;100.00;101952.69;5054789;28;20432;-60
2021/10/28 02:14:23;;;;;;;33.85;18.42;;;;;;;9.29;100.00;101955.41;5054382;28;20053;-59
2021/10/28 02:16:48;;;;;;;41.72;18.17;;;;;;;9.26;100.00;101944.88;5053774;28;20033;-59
2021/10/28 02:19:13;;;;;;;31.55;17.08;;;;;;;9.20;100.00;101951.19;5053985;28;20036;-60
2021/10/28 02:21:39;;;;;;;34.20;16.52;;;;;;;9.16;100.00;101952.16;5054450;28;20029;-64
2021/10/28 02:24:04;;;;;;;35.97;17.70;;;;;;;9.14;100.00;101952.22;5054540;28;20037;-63
2021/10/28 02:26:29;;;;;;;34.42;17.10;;;;;;;9.11;100.00;101946.97;5053530;28;20106;-64
2021/10/28 02:28:55;;;;;;;42.53;18.63;;;;;;;9.11;100.00;101949.59;5053799;28;20056;-64
2021/10/28 02:31:20;;;;;;;35.20;16.70;;;;;;;9.11;100.00;101952.25;5053729;28;20056;-63
2021/10/28 02:33:46;;;;;;;33.08;17.80;;;;;;;9.12;100.00;101945.22;5050104;28;20042;-59
2021/10/28 02:36:13;;;;;;;36.20;16.85;;;;;;;9.11;100.00;101939.03;5033462;28;20068;-63
2021/10/28 02:38:38;;;;;;;34.55;17.27;;;;;;;9.11;100.00;101938.19;5033711;28;20033;-60
2021/10/28 02:41:04;;;;;;;37.83;17.63;;;;;;;9.14;100.00;101932.81;5033390;28;20076;-60
2021/10/28 02:43:29;;;;;;;33.47;17.88;;;;;;;9.15;100.00;101931.91;5034299;28;20109;-64
2021/10/28 02:45:55;;;;;;;37.33;17.48;;;;;;;9.15;100.00;101922.22;5034106;28;20063;-60
2021/10/28 02:48:20;;;;;;;35.70;16.98;;;;;;;9.16;100.00;101931.03;5033200;28;20025;-64
2021/10/28 02:50:46;;;;;;;38.88;17.52;;;;;;;9.14;100.00;101925.78;5033521;28;20036;-60
2021/10/28 02:53:12;;;;;;;37.42;17.85;;;;;;;9.13;100.00;101924.03;5033514;28;20029;-64
2021/10/28 02:55:37;;;;;;;33.17;16.10;;;;;;;9.16;100.00;101920.47;5033555;28;20470;-59
2021/10/28 02:58:02;;;;;;;31.98;16.45;;;;;;;9.16;100.00;101915.16;5032766;28;20409;-64
2021/10/28 03:00:28;;;;;;;35.50;18.15;;;;;;;9.16;100.00;101917.81;5033129;28;20803;-59
2021/10/28 03:02:53;;;;;;;33.97;16.52;;;;;;;9.12;100.00;101909.06;5033005;28;20065;-59
2021/10/28 03:05:19;;;;;;;39.33;17.45;;;;;;;9.08;100.00;101907.41;5041040;28;20017;-59
2021/10/28 03:07:44;;;;;;;40.25;18.70;;;;;;;9.03;100.00;101906.63;5019322;28;20654;-59
2021/10/28 03:10:10;;;;;;;43.38;18.75;;;;;;;9.02;100.00;101900.47;5032714;28;20022;-60
2021/10/28 03:12:38;;;;;;;46.10;18.95;;;;;;;9.02;100.00;101897.81;5032547;28;20030;-60
2021/10/28 03:15:05;;;;;;;42.13;18.38;;;;;;;9.01;100.00;101897.88;5033528;28;20028;-64
2021/10/28 03:17:39;;;;;;;40.75;18.75;;;;;;;8.99;100.00;101894.38;5033739;28;20037;-60
2021/10/28 03:28:01;;;;;;;48.78;20.25;;;;;;;8.91;100.00;101883.97;5036058;28;20451;-60
2021/10/28 03:30:27;;;;;;;49.85;20.75;;;;;;;8.89;100.00;101884.91;5052405;28;20017;-64
2021/10/28 03:32:52;;;;;;;39.72;19.55;;;;;;;8.88;100.00;101889.31;5034456;28;20098;-63
2021/10/28 03:35:17;;;;;;;36.45;18.05;;;;;;;8.88;100.00;101875.25;5069644;28;20050;-59
2021/10/28 03:37:48;;;;;;;37.40;18.15;;;;;;;8.84;100.00;101882.38;5068856;28;20050;-60
2021/10/28 03:59:18;;;;;;;55.60;22.80;;;;;;;8.63;100.00;101865.19;5037229;28;20060;-59
2021/10/28 04:04:52;;;;;;;52.08;23.58;;;;;;;8.61;100.00;101861.72;5072693;28;20098;-60
2021/10/28 04:07:36;;;;;;;45.50;19.55;;;;;;;8.58;100.00;101864.41;5070182;28;20035;-59
2021/10/28 04:18:32;;;;;;;29.35;16.50;;;;;;;8.56;100.00;101858.31;5070608;28;20048;-59
2021/10/28 04:29:13;;;;;;;30.30;16.38;;;;;;;8.56;100.00;101845.09;4981877;28;20057;-62
2021/10/28 04:31:39;;;;;;;33.97;16.75;;;;;;;8.56;100.00;101851.25;4978035;28;20534;-63
2021/10/28 04:34:07;;;;;;;29.90;16.77;;;;;;;8.57;100.00;101844.19;4990320;28;20479;-62
2021/10/28 04:36:33;;;;;;;29.88;15.95;;;;;;;8.58;100.00;101846.81;4990352;28;20112;-64
2021/10/28 04:39:00;;;;;;;27.50;16.00;;;;;;;8.58;100.00;101841.53;4988953;28;20039;-64
2021/10/28 04:41:27;;;;;;;27.92;15.57;;;;;;;8.57;100.00;101842.44;4988714;28;20034;-59
2021/10/28 04:43:53;;;;;;;30.48;16.35;;;;;;;8.58;100.00;101848.56;4990397;28;20026;-60
2021/10/28 04:46:19;;;;;;;28.95;15.73;;;;;;;8.55;100.00;101848.66;4984601;28;20102;-58
2021/10/28 04:48:45;;;;;;;30.10;16.48;;;;;;;8.55;100.00;101843.38;4971083;28;20394;-59
2021/10/28 04:51:11;;;;;;;30.55;17.13;;;;;;;8.51;100.00;101838.13;4984594;28;20471;-59
2021/10/28 04:53:37;;;;;;;26.95;15.60;;;;;;;8.51;100.00;101842.56;4988367;28;20053;-60
2021/10/28 04:56:02;;;;;;;27.50;15.35;;;;;;;8.52;100.00;101839.88;4990229;28;20125;-60
2021/10/28 04:58:27;;;;;;;25.50;14.55;;;;;;;8.55;100.00;101831.03;4990331;28;20038;-63
2021/10/28 05:00:53;;;;;;;24.73;14.35;;;;;;;8.56;100.00;101839.81;5040940;28;20409;-59
2021/10/28 05:03:18;;;;;;;25.13;14.15;;;;;;;8.52;100.00;101845.16;5070091;28;20036;-57
2021/10/28 05:05:44;;;;;;;30.95;14.55;;;;;;;8.50;100.00;101844.34;5075157;28;20472;-60
2021/10/28 05:08:10;;;;;;;28.13;14.70;;;;;;;8.49;100.00;101836.41;5075249;28;20028;-60
2021/10/28 05:10:35;;;;;;;25.92;13.85;;;;;;;8.48;100.00;101830.28;5074662;28;20124;-60
2021/10/28 05:13:01;;;;;;;24.30;14.43;;;;;;;8.47;100.00;101832.97;5073634;28;20461;-60
2021/10/28 05:15:26;;;;;;;27.58;14.55;;;;;;;8.49;100.00;101836.41;5072276;28;20039;-59
2021/10/28 05:17:52;;;;;;;28.77;15.00;;;;;;;8.47;100.00;101839.09;5055853;28;20083;-59
2021/10/28 05:20:17;;;;;;;30.73;16.90;;;;;;;8.47;100.00;101846.16;5054796;28;20029;-60
2021/10/28 05:22:43;;;;;;;26.63;14.95;;;;;;;8.47;100.00;101843.53;5065565;28;20381;-62
2021/10/28 05:25:08;;;;;;;26.88;14.82;;;;;;;8.46;100.00;101832.06;5073127;28;20423;-59
2021/10/28 05:27:33;;;;;;;26.10;14.15;;;;;;;8.46;100.00;101828.56;5075079;28;20369;-60
2021/10/28 05:29:59;;;;;;;22.48;12.98;;;;;;;8.49;100.00;101829.38;5055724;28;20443;-59
2021/10/28 05:32:25;;;;;;;19.55;13.20;;;;;;;8.53;100.00;101830.19;5056993;28;20474;-60
2021/10/28 05:34:52;;;;;;;25.23;13.18;;;;;;;8.56;100.00;101829.28;5058333;28;20088;-60
2021/10/28 05:37:17;;;;;;;21.90;12.82;;;;;;;8.55;100.00;101823.09;5054319;28;20567;-59
2021/10/28 05:39:42;;;;;;;21.60;12.73;;;;;;;8.56;100.00;101816.94;5054434;28;20088;-60
2021/10/28 05:42:08;;;;;;;23.30;12.98;;;;;;;8.53;100.00;101817.00;5056995;28;20036;-60
2021/10/28 05:44:33;;;;;;;21.35;12.60;;;;;;;8.51;100.00;101816.16;5072499;28;20506;-60
2021/10/28 05:46:58;;;;;;;25.10;13.30;;;;;;;8.47;100.00;101812.69;5074371;28;20028;-65
2021/10/28 05:49:27;;;;;;;21.98;12.90;;;;;;;8.47;100.00;101819.75;5067876;28;20032;-64
2021/10/28 05:51:52;;;;;;;20.65;12.60;;;;;;;8.47;100.00;101819.75;5053998;28;20484;-61
2021/10/28 05:54:18;;;;;;;25.10;12.27;;;;;;;8.42;100.00;101811.03;5062188;28;20029;-60
2021/10/28 05:56:43;;;;;;;24.48;12.63;;;;;;;8.42;100.00;101830.38;5071347;28;20041;-59
2021/10/28 05:59:08;;;;;;;25.20;12.35;;;;;;;8.39;100.00;101817.25;5051933;28;20104;-64
2021/10/28 06:01:34;;;;;;;22.95;12.45;;;;;;;8.39;100.00;101817.25;5056827;28;20045;-59
2021/10/28 06:03:59;;;;;;;19.92;12.13;;;;;;;8.36;100.00;101823.47;5053158;28;20079;-64
2021/10/28 06:06:24;;;;;;;20.80;12.02;;;;;;;8.36;100.00;101823.47;5053012;28;20529;-61
2021/10/28 06:08:50;;;;;;;21.92;11.85;;;;;;;8.42;100.00;101816.31;5054215;28;20029;-64
2021/10/28 06:11:16;;;;;;;20.35;11.85;;;;;;;8.45;100.00;101822.41;5054120;28;20502;-65
2021/10/28 06:13:44;;;;;;;21.83;11.90;;;;;;;8.48;100.00;101818.88;5062517;28;20024;-62
2021/10/28 06:16:10;;;;;;;19.98;11.20;;;;;;;8.49;100.00;101813.56;5064163;28;20465;-60
2021/10/28 06:18:38;;;;;;;19.80;11.50;;;;;;;8.50;100.00;101817.03;5054023;28;20021;-62
2021/10/28 06:21:05;;;;;;;20.63;11.23;;;;;;;8.52;100.00;101823.19;5053017;28;20501;-61
2021/10/28 06:23:31;;;;;;;21.80;11.75;;;;;;;8.56;100.00;101822.22;5053753;28;20031;-60
2021/10/28 06:25:56;;;;;;;18.63;10.90;;;;;;;8.58;100.00;101817.78;5069801;28;20025;-59
2021/10/28 06:28:21;;;;;;;17.58;10.52;;;;;;;8.57;100.00;101802.81;5072470;28;20028;-60
2021/10/28 06:30:47;;;;;;;17.90;10.82;;;;;;;8.57;100.00;101805.47;5053784;28;20078;-64
2021/10/28 06:33:20;;;;;;;19.38;11.02;;;;;;;8.59;100.00;101798.38;5053511;28;20052;-62
2021/10/28 06:35:46;;;;;;;20.23;10.95;;;;;;;8.60;100.00;101801.91;5052269;28;20032;-64
2021/10/28 06:38:12;;;;;;;21.33;11.13;;;;;;;8.64;100.00;101803.56;5053459;28;20110;-59
2021/10/28 06:40:38;;;;;;;21.00;10.55;;;;;;;8.63;100.00;101796.53;5053431;28;20049;-65
2021/10/28 06:43:04;;;;;;;22.00;10.80;;;;;;;8.61;100.00;101791.28;5040333;28;20021;-64
2021/10/28 06:45:29;;;;;;;19.27;10.15;;;;;;;8.64;100.00;101793.00;5053464;28;20415;-62
2021/10/28 06:47:56;;;;;;;18.20;10.20;;;;;;;8.65;100.00;101797.38;5053516;28;20112;-61
2021/10/28 06:50:25;;;;;;;19.13;10.73;;;;;;;8.68;100.00;101786.75;5052537;28;20035;-64
2021/10/28 07:03:04;;;;;;;20.65;9.43;;;;;;;8.82;100.00;101791.72;5033295;28;20045;-61
2021/10/28 07:05:30;;;;;;;15.73;9.90;;;;;;;8.86;100.00;101790.75;5032756;28;20055;-61
2021/10/28 07:07:55;;;;;;;18.20;10.18;;;;;;;8.90;100.00;101792.44;5051966;28;20534;-61
2021/10/28 07:10:23;;;;;;;21.23;10.25;;;;;;;8.95;100.00;101787.94;5052491;28;20033;-64
2021/10/28 07:13:04;;;;;;;17.25;9.38;;;;;;;9.01;100.00;101785.16;5052883;28;20031;-63
2021/10/28 07:15:42;;;;;;;16.77;9.45;;;;;;;9.08;100.00;101788.50;5055452;28;20529;-62
2021/10/28 07:55:55;;;;;;;13.82;8.02;;;;;;;9.80;96.79;101745.28;5032185;28;20040;-63
2021/10/28 08:22:09;;;;;;;12.65;8.35;;;;;;;10.53;93.54;101722.94;5051197;28;20044;-61
2021/10/28 08:29:52;;;;;;;13.43;6.85;;;;;;;13.13;80.38;101711.03;5049772;28;20419;-62
2021/10/28 08:32:18;;;;;;;10.48;7.32;;;;;;;13.99;76.00;101698.50;5061652;28;20025;-61
2021/10/28 08:34:45;;;;;;;12.68;6.25;;;;;;;14.63;73.02;101701.72;5061545;28;20068;-59
2021/10/28 08:37:18;;;;;;;9.93;6.40;;;;;;;15.43;69.37;101699.56;5051140;28;20428;-62
2021/10/28 08:39:46;;;;;;;9.45;5.93;;;;;;;16.24;66.40;101695.34;5055904;28;20032;-60
2021/10/28 08:42:13;;;;;;;11.10;6.00;;;;;;;16.70;63.87;101696.31;5055689;28;20060;-60
2021/10/28 08:44:54;;;;;;;9.00;5.65;;;;;;;17.03;62.90;101691.81;5060681;28;20378;-58
2021/10/28 08:47:22;;;;;;;9.88;5.93;;;;;;;17.25;61.19;101701.25;5054846;28;20042;-61
2021/10/28 09:25:24;;;;;;;10.32;6.07;;;;;;;18.99;54.09;101642.06;4993884;28;20053;-59
2021/10/28 09:28:03;;;;;;;10.07;6.05;;;;;;;18.99;54.55;101643.88;4992407;28;20438;-62
2021/10/28 09:30:56;;;;;;;11.48;6.60;;;;;;;19.37;53.53;101636.84;4993374;28;20501;-61
2021/10/28 09:45:26;;;;;;;9.70;5.95;;;;;;;19.81;50.69;101614.03;5073788;28;20047;-57
2021/10/28 09:48:06;;;;;;;8.13;5.65;;;;;;;20.00;50.49;101615.41;5074605;28;20024;-60
2021/10/28 09:50:50;;;;;;;8.85;6.32;;;;;;;20.05;50.99;101618.63;5072360;28;20085;-60
2021/10/28 09:53:32;;;;;;;10.57;5.63;;;;;;;20.39;49.62;101610.78;5083462;28;20035;-60
2021/10/28 09:58:42;;;;;;;10.65;6.03;;;;;;;20.43;49.77;101617.63;5073258;28;20031;-59
2021/10/28 10:01:11;;;;;;;9.05;5.72;;;;;;;20.97;48.17;101618.13;5074065;28;20032;-60
2021/10/28 10:03:39;;;;;;;10.05;5.68;;;;;;;21.03;47.94;101618.53;5074027;28;20468;-59
2021/10/28 10:06:07;;;;;;;13.85;6.20;;;;;;;21.09;47.62;101623.44;5073419;28;20036;-60
2021/10/28 10:08:34;;;;;;;9.57;6.22;;;;;;;21.24;47.19;101609.75;5073990;28;20039;-60
2021/10/28 10:11:00;;;;;;;8.60;5.80;;;;;;;21.22;47.59;101606.34;5073292;28;20029;-61
2021/10/28 10:13:26;;;;;;;9.60;5.78;;;;;;;21.49;47.45;101595.22;5071022;28;20036;-59
2021/10/28 10:16:01;;;;;;;9.63;5.60;;;;;;;21.72;46.00;101604.19;5085129;28;20016;-61
2021/10/28 10:18:31;;;;;;;9.57;5.82;;;;;;;21.83;46.49;101600.63;5073611;28;20037;-60
2021/10/28 10:21:03;;;;;;;10.00;6.15;;;;;;;21.51;45.51;101604.03;5073415;28;20082;-58
2021/10/28 10:23:43;;;;;;;9.13;6.35;;;;;;;21.33;46.15;101602.78;5073702;28;20032;-60
2021/10/28 10:26:52;;;;;;;18.35;13.60;;;;;;;21.34;47.32;101593.72;5072522;28;21613;-60
2021/10/28 11:27:09;;;;;;;11.63;5.40;;;;;;;22.09;43.33;101516.75;5007582;28;20048;-61
2021/10/28 11:30:06;;;;;;;7.65;4.90;;;;;;;21.80;43.73;101517.28;5008409;28;20448;-62
2021/10/28 12:44:03;;;;;;;9.38;5.90;;;;;;;21.68;44.45;101414.03;4998123;28;20048;-56
2021/10/28 12:46:47;;;;;;;10.57;5.07;;;;;;;21.58;44.18;101410.41;4994054;28;20041;-59
2021/10/28 12:49:53;;;;;;;9.23;5.30;;;;;;;21.71;44.46;101399.47;4993796;28;20050;-60
2021/10/28 13:52:19;;;;;;;9.65;5.55;;;;;;;16.89;59.19;101350.16;5074266;28;20178;-56
2021/10/28 14:17:45;;;;;;;8.27;4.97;;;;;;;16.96;60.24;101334.63;5068089;28;20440;-59
2021/10/28 14:38:38;;;;;;;9.43;5.70;;;;;;;16.20;62.37;101308.06;4973558;28;20523;-62
2021/10/28 15:40:31;;;;;;;9.27;4.60;;;;;;;18.22;55.49;101269.09;5008224;28;20033;-60
2021/10/28 15:43:24;;;;;;;7.53;4.30;;;;;;;17.88;56.61;101267.88;5010493;28;20116;-58
2021/10/28 16:24:07;;;;;;;7.35;4.15;;;;;;;14.40;70.20;101245.38;5051743;28;20399;-51
2021/10/28 16:26:33;;;;;;;12.98;4.75;;;;;;;14.30;70.44;101235.31;5050091;28;20104;-61
2021/10/28 16:29:02;;;;;;;8.55;4.28;;;;;;;14.23;70.63;101230.34;5056482;28;20063;-60
2021/10/28 16:31:27;;;;;;;6.43;4.03;;;;;;;14.14;70.81;101229.97;5054678;28;20021;-62
2021/10/28 16:33:52;;;;;;;7.15;3.95;;;;;;;14.05;71.25;101224.19;5051855;28;20037;-62
2021/10/28 16:36:21;;;;;;;12.00;4.57;;;;;;;13.98;71.71;101228.13;5052155;28;20441;-61
2021/10/28 16:38:46;;;;;;;8.32;4.50;;;;;;;13.86;72.49;101220.75;5052321;28;20123;-56
2021/10/28 16:41:12;;;;;;;10.10;4.55;;;;;;;13.72;73.04;101227.69;5054372;28;20081;-60
2021/10/28 16:43:37;;;;;;;8.95;4.85;;;;;;;13.57;73.59;101224.00;5072216;28;20044;-57
2021/10/28 16:46:02;;;;;;;9.93;4.72;;;;;;;13.40;74.62;101219.56;5060966;28;20040;-62
2021/10/28 16:48:28;;;;;;;10.90;4.63;;;;;;;13.24;75.47;101216.75;5051172;28;20104;-58
2021/10/28 16:50:54;;;;;;;8.20;4.53;;;;;;;13.15;76.37;101219.88;5065398;28;20025;-61
2021/10/28 16:53:20;;;;;;;9.43;5.18;;;;;;;13.11;77.23;101219.16;5062125;28;20025;-60
2021/10/28 16:55:46;;;;;;;10.73;5.18;;;;;;;13.10;77.49;101228.06;5051550;28;20025;-58
2021/10/28 16:58:11;;;;;;;8.68;5.63;;;;;;;13.06;77.56;101204.38;5052027;28;20029;-62
2021/10/28 17:00:37;;;;;;;12.52;5.97;;;;;;;13.07;77.85;101228.25;5056338;28;20029;-56
2021/10/28 17:03:03;;;;;;;10.38;5.53;;;;;;;13.06;77.89;101215.88;5055626;28;20028;-61
2021/10/28 17:05:29;;;;;;;9.77;6.00;;;;;;;13.05;77.63;101215.97;5055403;28;20109;-59
2021/10/28 17:07:54;;;;;;;10.88;5.95;;;;;;;13.00;77.82;101213.50;5054143;28;20480;-61
2021/10/28 17:10:19;;;;;;;9.27;5.43;;;;;;;12.93;78.05;101220.94;5055088;28;20071;-62
2021/10/28 17:12:45;;;;;;;10.20;6.03;;;;;;;12.88;78.31;101206.16;5050288;28;20315;-60
2021/10/28 17:15:11;;;;;;;9.23;5.90;;;;;;;12.80;78.29;101201.22;5053489;28;20051;-56
2021/10/28 17:17:36;;;;;;;10.30;6.05;;;;;;;12.71;79.02;101205.19;5051156;28;20029;-58
2021/10/28 17:20:07;;;;;;;10.90;5.90;;;;;;;12.58;79.38;101193.41;5050988;28;20029;-62
2021/10/28 17:22:34;;;;;;;10.57;6.68;;;;;;;12.46;79.51;101200.16;5054092;28;20499;-60
2021/10/28 17:25:03;;;;;;;11.55;6.93;;;;;;;12.37;80.29;101192.63;5055010;28;20100;-61
2021/10/28 17:27:29;;;;;;;10.43;6.20;;;;;;;12.30;80.50;101189.38;5051513;28;20060;-58
2021/10/28 17:29:54;;;;;;;13.32;6.85;;;;;;;12.25;81.34;101194.91;5062541;28;20448;-60
2021/10/28 17:32:19;;;;;;;11.82;5.72;;;;;;;12.27;81.08;101200.16;5060264;28;20028;-56
2021/10/28 17:34:45;;;;;;;8.48;5.60;;;;;;;12.31;80.73;101193.75;5054388;28;20045;-60
2021/10/28 17:37:10;;;;;;;12.73;6.30;;;;;;;12.36;80.27;101190.91;5054254;28;20116;-60
2021/10/28 17:39:35;;;;;;;10.40;5.55;;;;;;;12.40;79.59;101190.66;5054336;28;20060;-58
2021/10/28 17:42:01;;;;;;;10.23;4.90;;;;;;;12.42;79.42;101193.28;5058857;28;20453;-60
2021/10/28 17:44:38;;;;;;;7.97;4.47;;;;;;;12.43;79.28;101187.03;5036330;28;20025;-60
2021/10/28 17:47:05;;;;;;;8.23;4.80;;;;;;;12.40;79.21;101182.69;5044024;28;20078;-60
2021/10/28 17:49:30;;;;;;;9.88;4.82;;;;;;;12.40;79.43;101185.34;5054525;28;20032;-60
2021/10/28 17:51:55;;;;;;;7.75;4.80;;;;;;;12.40;79.40;101189.81;5057841;28;20461;-58
2021/10/28 17:54:21;;;;;;;9.30;4.38;;;;;;;12.37;79.70;101185.50;5054040;28;20373;-62
2021/10/28 17:56:46;;;;;;;9.25;4.68;;;;;;;12.33;79.88;101188.38;5054284;28;20071;-60
2021/10/28 17:59:11;;;;;;;8.07;4.65;;;;;;;12.27;79.89;101192.19;5054119;28;20063;-60
2021/10/28 18:01:40;;;;;;;9.30;5.10;;;;;;;12.24;80.25;101181.72;5055457;28;20033;-58
2021/10/28 18:04:07;;;;;;;12.40;5.00;;;;;;;12.23;80.18;101193.25;5054309;28;20029;-58
2021/10/28 18:06:33;;;;;;;8.43;5.13;;;;;;;12.22;80.26;101189.72;5054142;28;20032;-61
2021/10/28 18:09:02;;;;;;;8.90;5.30;;;;;;;12.21;80.09;101185.38;5053886;28;20029;-60
2021/10/28 18:11:29;;;;;;;8.68;5.05;;;;;;;12.18;80.29;101190.81;5054565;28;20028;-60
2021/10/28 18:13:57;;;;;;;9.00;5.38;;;;;;;12.13;80.45;101193.69;5054222;28;20021;-60
2021/10/28 18:16:25;;;;;;;10.15;6.38;;;;;;;12.09;80.81;101180.63;5053847;28;20484;-60
2021/10/28 18:18:55;;;;;;;11.70;7.07;;;;;;;12.07;81.36;101190.44;5058863;28;20461;-62
2021/10/28 18:21:22;;;;;;;13.52;6.50;;;;;;;12.04;81.63;101182.63;5060084;28;20024;-62
2021/10/28 18:23:50;;;;;;;14.52;6.40;;;;;;;12.01;81.48;101175.66;5035491;28;20031;-59
2021/10/28 18:26:17;;;;;;;10.27;6.38;;;;;;;12.01;81.85;101177.44;5054148;28;20195;-59
2021/10/28 18:28:42;;;;;;;11.57;6.15;;;;;;;12.01;81.87;101183.63;5054381;28;20021;-58
2021/10/28 18:31:08;;;;;;;9.73;5.70;;;;;;;12.00;81.77;101176.59;5053886;28;20373;-59
2021/10/28 18:33:33;;;;;;;10.73;5.70;;;;;;;11.96;81.77;101183.81;5053374;28;20385;-58
2021/10/28 18:35:59;;;;;;;9.23;5.63;;;;;;;11.90;82.25;101177.91;5052572;28;20461;-59
2021/10/28 18:38:26;;;;;;;9.77;5.53;;;;;;;11.84;82.25;101187.00;5052864;28;20021;-61
2021/10/28 18:40:54;;;;;;;12.23;5.88;;;;;;;11.72;82.11;101177.78;5064102;28;20028;-60
2021/10/28 18:43:19;;;;;;;10.13;6.50;;;;;;;11.58;82.85;101162.47;5060996;28;20066;-60
2021/10/28 18:45:45;;;;;;;10.60;6.35;;;;;;;11.43;83.86;101173.75;5058062;28;20388;-60
2021/10/28 18:48:10;;;;;;;11.32;6.63;;;;;;;11.27;84.54;101185.00;5052404;28;20485;-59
2021/10/28 18:50:36;;;;;;;11.60;6.18;;;;;;;11.23;85.86;101179.94;5053693;28;20427;-53
2021/10/28 18:53:02;;;;;;;13.25;6.88;;;;;;;11.31;86.15;101181.31;5055813;28;20029;-59
2021/10/28 18:55:27;;;;;;;10.13;5.78;;;;;;;11.42;85.91;101174.69;5053094;28;20025;-60
2021/10/28 18:57:53;;;;;;;11.25;6.00;;;;;;;11.50;85.49;101155.81;5052660;28;20033;-59
2021/10/28 19:00:18;;;;;;;10.15;5.50;;;;;;;11.58;85.42;101161.63;5053160;28;20083;-53
2021/10/28 19:02:43;;;;;;;10.95;5.85;;;;;;;11.66;85.13;101170.09;5062774;28;20020;-57
2021/10/28 19:05:09;;;;;;;10.70;5.72;;;;;;;11.67;84.64;101174.47;5053040;28;20075;-58
2021/10/28 19:07:35;;;;;;;11.30;5.65;;;;;;;11.67;84.71;101170.97;5052765;28;20036;-59
2021/10/28 19:10:00;;;;;;;11.38;5.72;;;;;;;11.66;84.68;101177.19;5052903;28;20020;-53
2021/10/28 19:12:26;;;;;;;13.60;6.47;;;;;;;11.61;84.94;101165.00;5055767;28;20033;-54
2021/10/28 19:14:54;;;;;;;11.98;5.53;;;;;;;11.54;85.29;101163.53;5053461;28;20372;-58
2021/10/28 19:17:19;;;;;;;10.43;6.03;;;;;;;11.49;86.02;101165.53;5051779;28;20028;-57
2021/10/28 19:19:45;;;;;;;9.55;5.97;;;;;;;11.46;85.97;101160.38;5053250;28;20025;-59
2021/10/28 19:22:10;;;;;;;8.82;5.50;;;;;;;11.45;86.16;101156.84;5056943;28;20248;-58
2021/10/28 19:24:35;;;;;;;12.45;6.10;;;;;;;11.42;85.95;101156.13;5052973;28;20490;-55
2021/10/28 19:27:02;;;;;;;9.45;5.65;;;;;;;11.36;86.40;101151.09;5054987;28;20025;-61
2021/10/28 19:29:28;;;;;;;13.70;6.68;;;;;;;11.32;87.08;101143.25;5052996;28;20059;-57
2021/10/28 19:32:02;;;;;;;8.93;5.70;;;;;;;11.34;87.08;101150.28;5051808;28;20064;-59
2021/10/28 19:34:33;;;;;;;9.82;5.72;;;;;;;11.35;86.84;101146.72;5051749;28;20047;-56
2021/10/28 19:37:09;;;;;;;11.00;6.32;;;;;;;11.36;86.85;101146.66;5052848;28;20091;-58
2021/10/28 19:42:34;;;;;;;9.77;6.05;;;;;;;11.36;86.78;101140.50;5052563;28;20075;-58
2021/10/28 19:47:31;;;;;;;12.35;6.32;;;;;;;11.36;86.61;101137.84;5050487;28;20091;-56
2021/10/28 19:49:56;;;;;;;11.23;6.45;;;;;;;11.38;86.64;101130.66;5051669;28;20025;-60
2021/10/28 19:52:22;;;;;;;12.90;6.22;;;;;;;11.47;85.97;101132.91;5049953;28;20100;-54
2021/10/28 19:54:49;;;;;;;13.90;7.18;;;;;;;11.53;85.57;101130.00;5054939;28;20060;-57
2021/10/28 19:57:23;;;;;;;12.98;6.80;;;;;;;11.57;85.09;101125.41;5072259;28;20035;-56